createdAt,value
2018-06-02T00:01:34.490Z,43.70
2018-06-02T00:04:01.987Z,43.80
2018-06-02T00:06:30.329Z,43.90
2018-06-02T00:08:57.829Z,43.90
2018-06-02T00:11:25.307Z,43.90
2018-06-02T00:13:52.796Z,44.00
2018-06-02T00:16:21.048Z,44.10
2018-06-02T00:18:48.542Z,44.10
2018-06-02T00:21:16.039Z,44.10
2018-06-02T00:23:43.547Z,44.10
2018-06-02T00:26:11.040Z,44.20
2018-06-02T00:28:38.544Z,44.20
2018-06-02T00:31:06.814Z,44.30
2018-06-02T00:33:34.298Z,44.40
2018-06-02T00:36:01.802Z,44.30
2018-06-02T00:38:29.383Z,44.40
2018-06-02T00:40:56.875Z,44.40
2018-06-02T00:43:24.412Z,44.40
2018-06-02T00:45:51.901Z,44.50
2018-06-02T00:48:19.406Z,44.60
2018-06-02T00:50:46.878Z,44.50
2018-06-02T00:53:14.380Z,44.70
2018-06-02T00:55:42.669Z,44.90
2018-06-02T00:58:10.206Z,44.80
2018-06-02T01:00:37.672Z,44.90
2018-06-02T01:03:05.158Z,44.90
2018-06-02T01:05:32.644Z,44.90
2018-06-02T01:08:00.906Z,45.00
2018-06-02T01:10:28.395Z,45.10
2018-06-02T01:12:55.896Z,45.00
2018-06-02T01:15:23.362Z,45.10
2018-06-02T01:17:50.914Z,45.20
2018-06-02T01:20:18.531Z,45.20
2018-06-02T01:22:46.034Z,45.60
2018-06-02T01:25:13.574Z,45.40
2018-06-02T01:27:41.108Z,45.40
2018-06-02T01:30:09.354Z,45.50
2018-06-02T01:32:36.853Z,45.60
2018-06-02T01:35:04.329Z,45.60
2018-06-02T01:37:31.824Z,45.60
2018-06-02T01:40:00.064Z,45.70
2018-06-02T01:42:27.556Z,45.70
2018-06-02T01:44:55.048Z,45.80
2018-06-02T01:47:23.320Z,45.90
2018-06-02T01:49:50.792Z,45.90
2018-06-02T01:52:18.276Z,45.90
2018-06-02T01:54:45.815Z,45.90
2018-06-02T01:57:13.282Z,46.00
2018-06-02T01:59:40.793Z,46.10
2018-06-02T02:02:09.044Z,46.20
2018-06-02T02:04:36.576Z,46.30
2018-06-02T02:07:04.037Z,46.30
2018-06-02T02:09:32.339Z,46.20
2018-06-02T02:11:59.869Z,46.20
2018-06-02T02:14:27.356Z,46.30
2018-06-02T02:16:56.611Z,46.30
2018-06-02T02:19:24.175Z,46.30
2018-06-02T02:21:51.657Z,46.40
2018-06-02T02:24:19.298Z,46.40
2018-06-02T02:26:46.959Z,46.50
2018-06-02T02:29:14.493Z,46.50
2018-06-02T02:31:41.976Z,46.60
2018-06-02T02:34:09.483Z,46.60
2018-06-02T02:36:37.033Z,46.60
2018-06-02T02:39:04.521Z,46.70
2018-06-02T02:41:32.766Z,46.80
2018-06-02T02:44:00.260Z,46.80
2018-06-02T02:46:27.725Z,46.80
2018-06-02T02:48:55.217Z,46.80
2018-06-02T02:51:23.573Z,46.80
2018-06-02T02:53:51.082Z,46.90
2018-06-02T02:56:19.388Z,47.60
2018-06-02T02:58:47.648Z,47.00
2018-06-02T03:01:15.184Z,47.00
2018-06-02T03:03:42.725Z,47.00
2018-06-02T03:06:10.236Z,47.10
2018-06-02T03:08:37.746Z,47.00
2018-06-02T03:11:05.236Z,47.10
2018-06-02T03:13:32.737Z,46.80
2018-06-02T03:16:00.294Z,47.20
2018-06-02T03:18:27.784Z,47.40
2018-06-02T03:20:55.251Z,47.30
2018-06-02T03:23:22.746Z,47.30
2018-06-02T03:25:50.246Z,47.40
2018-06-02T03:28:17.755Z,47.50
2018-06-02T03:30:45.261Z,47.50
2018-06-02T03:33:13.543Z,47.70
2018-06-02T03:35:41.039Z,47.70
2018-06-02T03:38:08.547Z,47.70
2018-06-02T03:40:36.035Z,47.70
2018-06-02T03:43:03.517Z,47.80
2018-06-02T03:45:31.013Z,47.80
2018-06-02T03:47:58.497Z,47.90
2018-06-02T03:50:26.047Z,47.90
2018-06-02T03:52:53.536Z,48.00
2018-06-02T03:55:21.821Z,48.10
2018-06-02T03:57:50.161Z,48.20
2018-06-02T04:00:17.720Z,48.40
2018-06-02T04:02:46.029Z,48.40
2018-06-02T04:05:13.638Z,48.40
2018-06-02T04:07:42.437Z,48.40
2018-06-02T04:10:09.916Z,48.50
2018-06-02T04:12:37.466Z,48.50
2018-06-02T04:15:04.971Z,48.50
2018-06-02T04:17:32.443Z,48.50
2018-06-02T04:19:59.965Z,48.50
2018-06-02T04:22:27.460Z,48.70
2018-06-02T04:24:54.951Z,48.80
2018-06-02T04:27:22.679Z,49.00
2018-06-02T04:29:50.198Z,49.20
2018-06-02T04:32:17.669Z,49.30
2018-06-02T04:34:45.163Z,49.50
2018-06-02T04:37:12.669Z,49.70
2018-06-02T04:39:40.165Z,49.80
2018-06-02T04:42:07.640Z,49.80
2018-06-02T04:44:35.143Z,49.80
2018-06-02T04:47:02.607Z,49.90
2018-06-02T04:49:30.092Z,49.90
2018-06-02T04:51:57.647Z,49.90
2018-06-02T04:54:25.156Z,49.90
2018-06-02T04:56:52.723Z,49.80
2018-06-02T04:59:20.191Z,49.90
2018-06-02T05:01:48.450Z,49.80
2018-06-02T05:04:15.956Z,49.80
2018-06-02T05:06:43.460Z,49.80
2018-06-02T05:09:10.950Z,49.70
2018-06-02T05:11:38.471Z,49.60
2018-06-02T05:14:06.703Z,49.30
2018-06-02T05:16:34.230Z,49.40
2018-06-02T05:19:02.459Z,49.20
2018-06-02T05:21:29.944Z,49.20
2018-06-02T05:23:57.419Z,49.00
2018-06-02T05:26:25.932Z,48.90
2018-06-02T05:28:53.408Z,49.50
2018-06-02T05:31:20.952Z,48.90
2018-06-02T05:33:48.451Z,48.90
2018-06-02T05:36:15.992Z,49.00
2018-06-02T05:38:43.475Z,49.00
2018-06-02T05:41:10.968Z,49.00
2018-06-02T05:43:38.462Z,49.00
2018-06-02T05:46:06.725Z,48.90
2018-06-02T05:48:34.221Z,49.00
2018-06-02T05:51:02.474Z,48.90
2018-06-02T05:53:29.979Z,48.90
2018-06-02T05:55:58.240Z,49.20
2018-06-02T05:58:25.716Z,49.10
2018-06-02T06:00:53.239Z,49.10
2018-06-02T06:03:20.737Z,49.20
2018-06-02T06:05:48.403Z,49.30
2018-06-02T06:08:15.880Z,49.40
2018-06-02T06:10:43.352Z,49.60
2018-06-02T06:13:10.840Z,49.70
2018-06-02T06:15:38.320Z,49.80
2018-06-02T06:18:05.817Z,49.80
2018-06-02T06:20:33.324Z,49.90
2018-06-02T06:23:00.800Z,50.00
2018-06-02T06:25:28.279Z,49.80
2018-06-02T06:27:56.535Z,49.70
2018-06-02T06:30:24.017Z,49.50
2018-06-02T06:32:51.571Z,49.50
2018-06-02T06:35:19.059Z,49.60
2018-06-02T06:37:46.576Z,49.70
2018-06-02T06:40:14.116Z,49.70
2018-06-02T06:42:41.588Z,49.70
2018-06-02T06:45:09.119Z,49.60
2018-06-02T06:47:37.350Z,49.30
2018-06-02T06:50:04.847Z,49.30
2018-06-02T06:52:33.119Z,49.20
2018-06-02T06:55:00.656Z,49.20
2018-06-02T06:57:28.919Z,49.50
2018-06-02T06:59:56.440Z,49.40
2018-06-02T07:02:23.932Z,49.90
2018-06-02T07:04:51.387Z,50.00
2018-06-02T07:07:18.884Z,50.10
2018-06-02T07:09:46.452Z,50.20
2018-06-02T07:12:13.944Z,50.20
2018-06-02T07:14:41.425Z,50.20
2018-06-02T07:17:09.752Z,49.90
2018-06-02T07:19:37.229Z,49.70
2018-06-02T07:22:04.742Z,49.60
2018-06-02T07:24:32.224Z,49.20
2018-06-02T07:26:59.695Z,48.80
2018-06-02T07:29:27.224Z,48.50
2018-06-02T07:31:54.754Z,48.30
2018-06-02T07:34:22.998Z,48.00
2018-06-02T07:36:50.476Z,48.00
2018-06-02T07:39:18.240Z,48.30
2018-06-02T07:41:45.794Z,49.20
2018-06-02T07:44:13.400Z,50.00
2018-06-02T07:46:41.688Z,50.60
2018-06-02T07:49:09.156Z,50.50
2018-06-02T07:51:37.734Z,50.50
2018-06-02T07:54:05.218Z,50.70
2018-06-02T07:56:33.477Z,51.00
2018-06-02T07:59:01.007Z,50.90
2018-06-02T08:01:29.416Z,51.30
2018-06-02T08:03:57.664Z,50.50
2018-06-02T08:06:25.173Z,50.40
2018-06-02T08:08:53.428Z,47.80
2018-06-02T08:11:20.933Z,47.70
2018-06-02T08:13:48.416Z,48.20
2018-06-02T08:16:16.025Z,49.20
2018-06-02T08:18:43.577Z,49.30
2018-06-02T08:21:11.079Z,48.80
2018-06-02T08:23:38.553Z,47.60
2018-06-02T08:26:06.055Z,45.50
2018-06-02T08:28:33.520Z,44.50
2018-06-02T08:31:01.004Z,45.00
2018-06-02T08:33:29.435Z,46.70
2018-06-02T08:35:56.844Z,46.50
2018-06-02T08:38:24.408Z,46.80
2018-06-02T08:40:51.883Z,46.90
2018-06-02T08:43:19.363Z,46.90
2018-06-02T08:45:46.883Z,45.80
2018-06-02T08:48:14.377Z,43.90
2018-06-02T08:50:41.876Z,43.20
2018-06-02T08:53:09.366Z,42.70
2018-06-02T08:55:36.878Z,42.10
2018-06-02T08:58:05.132Z,39.40
2018-06-02T09:00:32.634Z,39.30
2018-06-02T09:03:00.185Z,38.60
2018-06-02T09:05:28.513Z,40.20
2018-06-02T09:07:59.399Z,40.00
2018-06-02T09:10:26.893Z,40.80
2018-06-02T09:12:54.444Z,39.80
2018-06-02T09:15:21.915Z,39.70
2018-06-02T09:17:49.403Z,39.00
2018-06-02T09:20:16.898Z,38.10
2018-06-02T09:22:45.166Z,37.90
2018-06-02T09:25:13.409Z,39.20
2018-06-02T09:27:40.927Z,39.10
2018-06-02T09:30:08.400Z,40.40
2018-06-02T09:32:36.671Z,39.30
2018-06-02T09:35:05.909Z,39.10
2018-06-02T09:37:33.334Z,38.20
2018-06-02T09:40:00.810Z,37.70
2018-06-02T09:42:28.377Z,38.20
2018-06-02T09:44:55.911Z,38.40
2018-06-02T09:47:23.452Z,37.60
2018-06-02T09:49:50.932Z,36.30
2018-06-02T09:52:18.421Z,35.60
2018-06-02T09:54:46.053Z,36.00
2018-06-02T09:57:13.576Z,36.40
2018-06-02T09:59:41.073Z,36.40
2018-06-02T10:02:08.631Z,35.10
2018-06-02T10:04:36.252Z,34.20
2018-06-02T10:07:03.746Z,34.50
2018-06-02T10:09:31.277Z,34.10
2018-06-02T10:11:58.769Z,34.40
2018-06-02T10:14:27.088Z,33.70
2018-06-02T10:16:54.611Z,33.50
2018-06-02T10:19:22.236Z,32.50
2018-06-02T10:21:50.473Z,30.80
2018-06-02T10:24:18.769Z,30.60
2018-06-02T10:26:46.483Z,30.70
2018-06-02T10:29:14.035Z,30.00
2018-06-02T10:31:41.574Z,29.80
2018-06-02T10:34:09.061Z,29.50
2018-06-02T10:36:37.339Z,28.60
2018-06-02T10:39:04.931Z,28.50
2018-06-02T10:41:32.431Z,27.90
2018-06-02T10:44:00.771Z,27.50
2018-06-02T10:46:28.314Z,27.40
2018-06-02T10:48:55.885Z,26.30
2018-06-02T10:51:23.470Z,25.50
2018-06-02T10:53:51.131Z,25.00
2018-06-02T10:56:18.682Z,24.70
2018-06-02T10:58:47.021Z,24.80
2018-06-02T11:01:14.557Z,24.70
2018-06-02T11:03:42.201Z,24.60
2018-06-02T11:06:09.950Z,24.40
2018-06-02T11:08:37.567Z,25.30
2018-06-02T11:11:05.324Z,26.60
2018-06-02T11:13:32.987Z,27.90
2018-06-02T11:16:01.251Z,28.20
2018-06-02T11:18:30.091Z,28.60
2018-06-02T11:20:57.641Z,27.30
2018-06-02T11:23:25.329Z,25.60
2018-06-02T11:25:52.926Z,25.20
2018-06-02T11:28:21.352Z,25.20
2018-06-02T11:30:49.492Z,25.20
2018-06-02T11:33:17.024Z,24.70
2018-06-02T11:35:44.618Z,24.20
2018-06-02T11:38:12.321Z,24.00
2018-06-02T11:40:40.044Z,24.10
2018-06-02T11:43:07.669Z,24.60
2018-06-02T11:45:35.289Z,24.70
2018-06-02T11:48:02.846Z,24.90
2018-06-02T11:50:32.350Z,25.30
2018-06-02T11:52:59.914Z,25.30
2018-06-02T11:55:27.446Z,25.70
2018-06-02T11:57:55.011Z,25.70
2018-06-02T12:00:22.565Z,25.70
2018-06-02T12:02:50.806Z,25.00
2018-06-02T12:05:18.323Z,24.90
2018-06-02T12:07:45.938Z,25.30
2018-06-02T12:10:13.436Z,25.40
2018-06-02T12:12:40.955Z,25.20
2018-06-02T12:15:08.553Z,25.50
2018-06-02T12:17:36.050Z,24.10
2018-06-02T12:20:04.387Z,23.00
2018-06-02T12:22:32.080Z,22.90
2018-06-02T12:24:59.595Z,23.20
2018-06-02T12:27:27.104Z,23.40
2018-06-02T12:29:54.617Z,23.00
2018-06-02T12:32:22.187Z,23.00
2018-06-02T12:34:49.750Z,22.70
2018-06-02T12:37:17.350Z,21.90
2018-06-02T12:39:44.935Z,21.30
2018-06-02T12:42:12.476Z,21.00
2018-06-02T12:44:40.044Z,21.50
2018-06-02T12:47:07.656Z,21.80
2018-06-02T12:49:35.244Z,22.60
2018-06-02T12:52:03.515Z,22.70
2018-06-02T12:54:31.858Z,22.80
2018-06-02T12:56:59.427Z,22.70
2018-06-02T12:59:27.062Z,22.50
2018-06-02T13:01:54.574Z,22.20
2018-06-02T13:04:22.137Z,21.90
2018-06-02T13:06:49.781Z,21.20
2018-06-02T13:09:17.359Z,20.20
2018-06-02T13:11:45.251Z,20.60
2018-06-02T13:14:14.321Z,20.00
2018-06-02T13:16:41.917Z,19.80
2018-06-02T13:19:09.404Z,20.10
2018-06-02T13:21:37.675Z,19.90
2018-06-02T13:24:05.958Z,19.80
2018-06-02T13:26:33.617Z,19.60
2018-06-02T13:29:01.138Z,19.20
2018-06-02T13:31:28.668Z,19.00
2018-06-02T13:33:56.200Z,18.70
2018-06-02T13:36:23.744Z,18.10
2018-06-02T13:38:51.286Z,18.10
2018-06-02T13:41:18.816Z,18.20
2018-06-02T13:43:46.437Z,18.30
2018-06-02T13:46:14.539Z,18.30
2018-06-02T13:48:42.082Z,17.80
2018-06-02T13:51:09.604Z,17.90
2018-06-02T13:53:37.115Z,17.30
2018-06-02T13:56:04.690Z,17.20
2018-06-02T13:58:32.204Z,17.10
2018-06-02T14:01:00.477Z,17.00
2018-06-02T14:03:27.984Z,16.90
2018-06-02T14:05:55.560Z,16.90
2018-06-02T14:08:23.112Z,16.90
2018-06-02T14:10:51.395Z,16.00
2018-06-02T14:13:19.722Z,15.60
2018-06-02T14:15:47.379Z,15.50
2018-06-02T14:18:15.772Z,16.00
2018-06-02T14:20:44.064Z,16.10
2018-06-02T14:23:12.351Z,16.10
2018-06-02T14:25:40.610Z,16.00
2018-06-02T14:28:08.115Z,15.90
2018-06-02T14:30:36.388Z,15.60
2018-06-02T14:33:04.664Z,15.70
2018-06-02T14:35:32.160Z,15.60
2018-06-02T14:38:00.619Z,15.80
2018-06-02T14:40:28.177Z,15.80
2018-06-02T14:42:55.687Z,15.90
2018-06-02T14:45:23.164Z,15.90
2018-06-02T14:47:50.641Z,15.60
2018-06-02T14:50:18.903Z,15.30
2018-06-02T14:52:46.487Z,15.30
2018-06-02T14:55:14.067Z,15.30
2018-06-02T14:57:41.491Z,15.00
2018-06-02T15:00:09.098Z,14.70
2018-06-02T15:02:36.811Z,14.50
2018-06-02T15:05:04.409Z,14.70
2018-06-02T15:07:31.911Z,15.00
2018-06-02T15:09:59.441Z,15.20
2018-06-02T15:12:26.983Z,15.30
2018-06-02T15:14:55.336Z,15.30
2018-06-02T15:17:22.856Z,15.30
2018-06-02T15:19:50.376Z,15.30
2018-06-02T15:22:17.870Z,15.30
2018-06-02T15:24:45.414Z,15.30
2018-06-02T15:27:12.924Z,15.30
2018-06-02T15:29:40.416Z,15.40
2018-06-02T15:32:07.895Z,15.70
2018-06-02T15:34:35.435Z,15.30
2018-06-02T15:37:03.716Z,15.00
2018-06-02T15:39:31.240Z,15.00
2018-06-02T15:41:58.732Z,14.90
2018-06-02T15:44:26.244Z,15.00
2018-06-02T15:46:53.711Z,15.00
2018-06-02T15:49:21.312Z,15.10
2018-06-02T15:51:48.850Z,15.10
2018-06-02T15:54:16.333Z,15.10
2018-06-02T15:56:44.661Z,15.10
2018-06-02T15:59:12.145Z,15.10
2018-06-02T16:01:39.664Z,15.10
2018-06-02T16:04:07.150Z,15.00
2018-06-02T16:06:35.412Z,15.20
2018-06-02T16:09:02.903Z,15.10
2018-06-02T16:11:31.159Z,15.60
2018-06-02T16:13:58.632Z,15.60
2018-06-02T16:16:26.104Z,15.90
2018-06-02T16:18:55.294Z,16.90
2018-06-02T16:21:23.851Z,16.30
2018-06-02T16:23:51.608Z,16.50
2018-06-02T16:26:19.232Z,17.30
2018-06-02T16:28:47.354Z,17.20
2018-06-02T16:31:14.890Z,17.50
2018-06-02T16:33:43.232Z,17.70
2018-06-02T16:36:10.713Z,17.90
2018-06-02T16:38:38.184Z,18.60
2018-06-02T16:41:06.470Z,18.60
2018-06-02T16:43:33.999Z,18.60
2018-06-02T16:46:01.485Z,18.90
2018-06-02T16:48:28.958Z,19.10
2018-06-02T16:50:57.058Z,19.40
2018-06-02T16:53:24.584Z,19.60
2018-06-02T16:55:52.094Z,19.70
2018-06-02T16:58:19.574Z,19.80
2018-06-02T17:00:47.100Z,19.90
2018-06-02T17:03:14.583Z,19.90
2018-06-02T17:05:42.120Z,20.00
2018-06-02T17:08:10.371Z,20.30
2018-06-02T17:10:38.029Z,20.30
2018-06-02T17:13:05.516Z,20.40
2018-06-02T17:15:33.001Z,20.50
2018-06-02T17:18:00.525Z,20.70
2018-06-02T17:20:28.001Z,20.80
2018-06-02T17:22:55.505Z,20.90
2018-06-02T17:25:22.980Z,21.00
2018-06-02T17:27:50.484Z,21.10
2018-06-02T17:30:18.019Z,21.60
2018-06-02T17:32:45.648Z,21.20
2018-06-02T17:35:13.124Z,21.40
2018-06-02T17:37:41.380Z,21.60
2018-06-02T17:40:09.659Z,21.70
2018-06-02T17:42:38.004Z,21.80
2018-06-02T17:45:05.580Z,21.80
2018-06-02T17:47:33.133Z,21.90
2018-06-02T17:50:00.654Z,22.10
2018-06-02T17:52:28.138Z,22.10
2018-06-02T17:54:55.679Z,22.30
2018-06-02T17:57:23.196Z,22.40
2018-06-02T17:59:51.507Z,22.60
2018-06-02T18:02:19.068Z,22.60
2018-06-02T18:04:46.635Z,22.70
2018-06-02T18:07:14.190Z,22.80
2018-06-02T18:09:41.694Z,22.90
2018-06-02T18:12:09.197Z,22.90
2018-06-02T18:14:36.747Z,23.00
2018-06-02T18:17:04.274Z,23.10
2018-06-02T18:19:31.764Z,23.30
2018-06-02T18:21:59.231Z,23.40
2018-06-02T18:24:27.566Z,23.70
2018-06-02T18:26:55.057Z,23.70
2018-06-02T18:29:22.674Z,23.80
2018-06-02T18:31:50.189Z,23.80
2018-06-02T18:34:17.888Z,23.90
2018-06-02T18:36:45.375Z,24.00
2018-06-02T18:39:13.909Z,24.70
2018-06-02T18:41:41.442Z,24.40
2018-06-02T18:44:09.014Z,24.90
2018-06-02T18:46:36.507Z,24.60
2018-06-02T18:49:04.761Z,24.80
2018-06-02T18:51:32.239Z,24.70
2018-06-02T18:53:59.757Z,24.80
2018-06-02T18:56:27.377Z,25.00
2018-06-02T18:58:54.884Z,25.10
2018-06-02T19:01:23.145Z,25.30
2018-06-02T19:03:50.628Z,25.30
2018-06-02T19:06:18.261Z,25.40
2018-06-02T19:08:46.756Z,25.40
2018-06-02T19:11:14.264Z,25.50
2018-06-02T19:13:41.769Z,25.60
2018-06-02T19:16:09.262Z,25.70
2018-06-02T19:18:36.812Z,25.70
2018-06-02T19:21:04.394Z,25.70
2018-06-02T19:23:31.933Z,25.80
2018-06-02T19:25:59.437Z,25.80
2018-06-02T19:28:26.942Z,25.80
2018-06-02T19:30:54.407Z,25.90
2018-06-02T19:33:21.936Z,26.00
2018-06-02T19:35:50.284Z,26.20
2018-06-02T19:38:17.793Z,26.20
2018-06-02T19:40:46.039Z,26.40
2018-06-02T19:43:13.512Z,26.40
2018-06-02T19:45:41.088Z,26.50
2018-06-02T19:48:08.602Z,26.60
2018-06-02T19:50:36.094Z,26.70
2018-06-02T19:53:03.571Z,26.90
2018-06-02T19:55:31.083Z,26.90
2018-06-02T19:57:58.588Z,27.00
2018-06-02T20:00:26.083Z,27.10
2018-06-02T20:02:53.568Z,27.20
2018-06-02T20:05:21.142Z,27.40
2018-06-02T20:07:48.667Z,27.50
2018-06-02T20:10:16.179Z,27.50
2018-06-02T20:12:43.689Z,28.00
2018-06-02T20:15:11.176Z,27.70
2018-06-02T20:17:38.652Z,27.70
2018-06-02T20:20:06.901Z,28.00
2018-06-02T20:22:34.375Z,28.00
2018-06-02T20:25:01.863Z,28.00
2018-06-02T20:27:29.376Z,28.10
2018-06-02T20:29:56.859Z,28.20
2018-06-02T20:32:24.330Z,28.80
2018-06-02T20:34:51.849Z,28.40
2018-06-02T20:37:19.377Z,28.50
2018-06-02T20:39:46.878Z,28.60
2018-06-02T20:42:14.424Z,28.70
2018-06-02T20:44:41.910Z,28.80
2018-06-02T20:47:10.195Z,29.10
2018-06-02T20:49:37.674Z,29.10
2018-06-02T20:52:05.149Z,29.10
2018-06-02T20:54:32.668Z,29.20
2018-06-02T20:57:00.901Z,29.40
2018-06-02T20:59:28.379Z,29.40
2018-06-02T21:01:55.860Z,29.40
2018-06-02T21:04:24.169Z,29.60
2018-06-02T21:06:51.648Z,29.70
2018-06-02T21:09:19.911Z,30.10
2018-06-02T21:11:47.515Z,29.90
2018-06-02T21:14:15.908Z,30.00
2018-06-02T21:16:44.198Z,30.00
2018-06-02T21:19:11.767Z,30.00
2018-06-02T21:21:39.301Z,30.10
2018-06-02T21:24:07.209Z,30.20
2018-06-02T21:26:34.828Z,30.30
2018-06-02T21:29:02.371Z,30.60
2018-06-02T21:31:29.897Z,30.50
2018-06-02T21:33:58.673Z,30.60
2018-06-02T21:36:26.205Z,30.80
2018-06-02T21:38:54.970Z,31.00
2018-06-02T21:41:23.728Z,31.10
2018-06-02T21:43:51.405Z,31.20
2018-06-02T21:46:18.955Z,31.20
2018-06-02T21:48:46.452Z,31.30
2018-06-02T21:51:13.956Z,31.40
2018-06-02T21:53:41.456Z,31.60
2018-06-02T21:56:08.983Z,31.70
2018-06-02T21:58:36.473Z,31.80
2018-06-02T22:01:03.966Z,31.80
2018-06-02T22:03:31.478Z,31.90
2018-06-02T22:06:37.105Z,32.00
2018-06-02T22:09:06.131Z,32.70
2018-06-02T22:11:34.701Z,32.70
2018-06-02T22:14:03.108Z,32.60
2018-06-02T22:16:32.180Z,32.70
2018-06-02T22:19:00.521Z,32.70
2018-06-02T22:21:28.939Z,32.80
2018-06-02T22:23:57.258Z,32.80
2018-06-02T22:26:25.608Z,32.90
2018-06-02T22:28:54.327Z,32.90
2018-06-02T22:31:22.748Z,33.10
2018-06-02T22:33:51.185Z,33.10
2018-06-02T22:36:19.624Z,33.20
2018-06-02T22:38:47.952Z,33.30
2018-06-02T22:41:16.531Z,33.30
2018-06-02T22:43:45.324Z,34.00
2018-06-02T22:46:13.805Z,33.50
2018-06-02T22:48:42.168Z,33.70
2018-06-02T22:51:10.589Z,33.70
2018-06-02T22:53:39.110Z,33.80
2018-06-02T22:56:07.540Z,33.90
2018-06-02T22:58:36.034Z,34.00
2018-06-02T23:01:04.440Z,34.10
2018-06-02T23:03:32.867Z,34.20
2018-06-02T23:06:01.321Z,34.20
2018-06-02T23:08:29.759Z,34.30
2018-06-02T23:10:58.235Z,34.40
2018-06-02T23:13:26.615Z,34.50
2018-06-02T23:15:54.997Z,34.60
2018-06-02T23:18:23.389Z,34.80
2018-06-02T23:20:51.977Z,34.70
2018-06-02T23:23:20.294Z,34.80
2018-06-02T23:25:48.751Z,34.90
2018-06-02T23:28:18.133Z,35.00
2018-06-02T23:30:46.540Z,35.00
2018-06-02T23:33:14.944Z,35.10
2018-06-02T23:35:43.256Z,35.20
2018-06-02T23:38:11.590Z,35.30
2018-06-02T23:40:39.847Z,35.20
2018-06-02T23:43:08.231Z,35.40
2018-06-02T23:45:36.551Z,36.00
2018-06-02T23:48:04.999Z,35.60
2018-06-02T23:50:33.359Z,35.70
2018-06-02T23:53:08.564Z,35.70
2018-06-02T23:55:36.991Z,35.80
2018-06-02T23:58:05.356Z,35.90
